Main page
METAR-TAF:

METAR-TAF

Airports :

Sacramento McClellan Airport

Sacramento, California, United States

latitude: 38-40-04N, longitude: 121-24-02W, elevation: 75 ft

Current weather observation

The report was made 23 minutes ago, at 19:35 UTC
Calm wind
Temperature 84°F
Humidity 33%
Pressure 29.99 in. Hg
Visibility: 10 miles
Clear sky

METAR: KMCC 141935Z AUTO 00000KT 10SM CLR 29/11 A2999 RMK AO2 PWINO

Time: 12:58 (19:58 UTC)

Forecast

The report was made 2 hours and 28 minutes ago, at 17:30 UTC
Forecast valid from 14 at 18 UTC to 15 at 18 UTC
Wind 9 mph from the South/Southwest
Visibility: 6 miles
Clear sky
From 15 at 0200 UTC
Wind 14 mph from the South with gusts up to 18 mph
Visibility: 6 miles
Clear sky
From 15 at 0600 UTC
Wind 12 mph from the South
Visibility: 6 miles
Clear sky

TAF: KMCC 141730Z 1418/1518 20008KT P6SM SKC FM150200 19012G16KT P6SM SKC FM150600 17010KT P6SM SKC

Weather observations and forecasts of more than 4000 airports (METAR and TAF reports).

The available stations are represented by yellow and red dots on the map.

Hover mouse over dot to see the name of the station.

Then click to see weather observations and forecasts.

To change the map : click on the green buttons with a black cross to zoom in, on the green button with a dash to zoom out, or on the green arrows for adjacent maps.


METAR-TAF: